sensor_id;sensor_type;location;lat;lon;timestamp;P1;durP1;ratioP1;P2;durP2;ratioP2
28766;SDS011;15921;52.034;20.650;2024-01-15T00:02:05;24.58;;;12.13;;
28766;SDS011;15921;52.034;20.650;2024-01-15T00:04:35;26.92;;;12.82;;
28766;SDS011;15921;52.034;20.650;2024-01-15T00:07:02;23.75;;;12.35;;
28766;SDS011;15921;52.034;20.650;2024-01-15T00:09:28;24.80;;;12.85;;
28766;SDS011;15921;52.034;20.650;2024-01-15T00:11:54;29.33;;;12.82;;
28766;SDS011;15921;52.034;20.650;2024-01-15T00:14:19;24.83;;;12.38;;
28766;SDS011;15921;52.034;20.650;2024-01-15T00:16:45;27.10;;;13.23;;
28766;SDS011;15921;52.034;20.650;2024-01-15T00:19:12;30.20;;;13.82;;
28766;SDS011;15921;52.034;20.650;2024-01-15T00:21:37;26.55;;;13.02;;
28766;SDS011;15921;52.034;20.650;2024-01-15T00:24:03;28.23;;;13.27;;
28766;SDS011;15921;52.034;20.650;2024-01-15T00:26:29;25.40;;;12.98;;
28766;SDS011;15921;52.034;20.650;2024-01-15T00:28:55;24.25;;;11.85;;
28766;SDS011;15921;52.034;20.650;2024-01-15T00:31:20;29.50;;;13.05;;
28766;SDS011;15921;52.034;20.650;2024-01-15T00:33:46;27.58;;;13.05;;
28766;SDS011;15921;52.034;20.650;2024-01-15T00:36:12;30.40;;;13.60;;
28766;SDS011;15921;52.034;20.650;2024-01-15T00:38:39;30.45;;;13.80;;
28766;SDS011;15921;52.034;20.650;2024-01-15T00:41:05;27.85;;;14.27;;
28766;SDS011;15921;52.034;20.650;2024-01-15T00:43:30;33.05;;;15.23;;
28766;SDS011;15921;52.034;20.650;2024-01-15T00:45:56;28.23;;;15.15;;
28766;SDS011;15921;52.034;20.650;2024-01-15T00:48:22;28.23;;;14.07;;
28766;SDS011;15921;52.034;20.650;2024-01-15T00:50:47;31.60;;;16.08;;
28766;SDS011;15921;52.034;20.650;2024-01-15T00:53:13;29.85;;;15.45;;
28766;SDS011;15921;52.034;20.650;2024-01-15T00:55:39;31.75;;;15.75;;
28766;SDS011;15921;52.034;20.650;2024-01-15T00:58:04;32.10;;;16.33;;
28766;SDS011;15921;52.034;20.650;2024-01-15T01:00:30;33.53;;;16.27;;
28766;SDS011;15921;52.034;20.650;2024-01-15T01:02:56;35.88;;;17.73;;
28766;SDS011;15921;52.034;20.650;2024-01-15T01:05:21;33.80;;;15.48;;
28766;SDS011;15921;52.034;20.650;2024-01-15T01:07:47;31.40;;;16.17;;
28766;SDS011;15921;52.034;20.650;2024-01-15T01:10:13;36.58;;;16.52;;
28766;SDS011;15921;52.034;20.650;2024-01-15T01:12:38;35.47;;;16.65;;
28766;SDS011;15921;52.034;20.650;2024-01-15T01:15:04;33.50;;;16.30;;
28766;SDS011;15921;52.034;20.650;2024-01-15T01:17:30;33.83;;;16.75;;
28766;SDS011;15921;52.034;20.650;2024-01-15T01:19:56;31.88;;;15.90;;
28766;SDS011;15921;52.034;20.650;2024-01-15T01:22:21;30.83;;;15.73;;
28766;SDS011;15921;52.034;20.650;2024-01-15T01:24:47;34.58;;;16.75;;
28766;SDS011;15921;52.034;20.650;2024-01-15T01:27:13;32.90;;;15.60;;
28766;SDS011;15921;52.034;20.650;2024-01-15T01:29:39;34.95;;;17.02;;
28766;SDS011;15921;52.034;20.650;2024-01-15T01:32:04;31.20;;;15.85;;
28766;SDS011;15921;52.034;20.650;2024-01-15T01:34:32;32.97;;;15.18;;
28766;SDS011;15921;52.034;20.650;2024-01-15T01:36:58;30.50;;;15.30;;
28766;SDS011;15921;52.034;20.650;2024-01-15T01:39:23;27.77;;;14.70;;
28766;SDS011;15921;52.034;20.650;2024-01-15T01:41:49;32.35;;;14.73;;
28766;SDS011;15921;52.034;20.650;2024-01-15T01:44:15;29.90;;;14.80;;
28766;SDS011;15921;52.034;20.650;2024-01-15T01:46:40;33.22;;;15.60;;
28766;SDS011;15921;52.034;20.650;2024-01-15T01:49:07;31.25;;;14.90;;
28766;SDS011;15921;52.034;20.650;2024-01-15T01:51:34;31.33;;;14.90;;
28766;SDS011;15921;52.034;20.650;2024-01-15T01:54:02;31.48;;;15.00;;
28766;SDS011;15921;52.034;20.650;2024-01-15T01:56:29;29.85;;;15.55;;
28766;SDS011;15921;52.034;20.650;2024-01-15T01:58:55;29.70;;;15.52;;
28766;SDS011;15921;52.034;20.650;2024-01-15T02:01:21;31.10;;;14.63;;
28766;SDS011;15921;52.034;20.650;2024-01-15T02:03:47;34.55;;;15.68;;
28766;SDS011;15921;52.034;20.650;2024-01-15T02:06:13;28.85;;;14.90;;
28766;SDS011;15921;52.034;20.650;2024-01-15T02:08:39;35.88;;;14.65;;
28766;SDS011;15921;52.034;20.650;2024-01-15T02:11:08;32.30;;;14.65;;
28766;SDS011;15921;52.034;20.650;2024-01-15T02:13:34;30.70;;;14.70;;
28766;SDS011;15921;52.034;20.650;2024-01-15T02:16:00;31.52;;;14.52;;
28766;SDS011;15921;52.034;20.650;2024-01-15T02:18:26;30.58;;;14.52;;
28766;SDS011;15921;52.034;20.650;2024-01-15T02:20:51;27.75;;;14.38;;
28766;SDS011;15921;52.034;20.650;2024-01-15T02:23:17;31.85;;;14.90;;
28766;SDS011;15921;52.034;20.650;2024-01-15T02:25:43;33.50;;;15.23;;
28766;SDS011;15921;52.034;20.650;2024-01-15T02:28:12;28.40;;;14.90;;
28766;SDS011;15921;52.034;20.650;2024-01-15T02:30:39;32.00;;;15.07;;
28766;SDS011;15921;52.034;20.650;2024-01-15T02:33:06;29.90;;;15.13;;
28766;SDS011;15921;52.034;20.650;2024-01-15T02:35:32;34.22;;;15.30;;
28766;SDS011;15921;52.034;20.650;2024-01-15T02:37:58;34.45;;;16.38;;
28766;SDS011;15921;52.034;20.650;2024-01-15T02:40:24;31.60;;;15.23;;
28766;SDS011;15921;52.034;20.650;2024-01-15T02:42:50;31.15;;;15.48;;
28766;SDS011;15921;52.034;20.650;2024-01-15T02:45:16;30.05;;;15.02;;
28766;SDS011;15921;52.034;20.650;2024-01-15T02:47:42;33.28;;;13.77;;
28766;SDS011;15921;52.034;20.650;2024-01-15T02:50:08;33.70;;;16.17;;
28766;SDS011;15921;52.034;20.650;2024-01-15T02:52:34;34.15;;;16.58;;
28766;SDS011;15921;52.034;20.650;2024-01-15T02:54:59;34.78;;;17.08;;
28766;SDS011;15921;52.034;20.650;2024-01-15T02:57:25;37.95;;;17.85;;
28766;SDS011;15921;52.034;20.650;2024-01-15T02:59:50;43.08;;;17.40;;
28766;SDS011;15921;52.034;20.650;2024-01-15T03:02:16;40.83;;;17.38;;
28766;SDS011;15921;52.034;20.650;2024-01-15T03:04:45;39.00;;;16.67;;
28766;SDS011;15921;52.034;20.650;2024-01-15T03:07:11;34.47;;;16.90;;
28766;SDS011;15921;52.034;20.650;2024-01-15T03:09:37;39.58;;;16.88;;
28766;SDS011;15921;52.034;20.650;2024-01-15T03:12:03;39.60;;;17.27;;
28766;SDS011;15921;52.034;20.650;2024-01-15T03:14:29;39.00;;;16.33;;
28766;SDS011;15921;52.034;20.650;2024-01-15T03:16:55;31.73;;;15.65;;
28766;SDS011;15921;52.034;20.650;2024-01-15T03:19:20;31.60;;;15.13;;
28766;SDS011;15921;52.034;20.650;2024-01-15T03:21:46;33.42;;;14.88;;
28766;SDS011;15921;52.034;20.650;2024-01-15T03:24:12;33.75;;;16.00;;
28766;SDS011;15921;52.034;20.650;2024-01-15T03:26:38;35.33;;;16.52;;
28766;SDS011;15921;52.034;20.650;2024-01-15T03:29:04;36.65;;;17.30;;
28766;SDS011;15921;52.034;20.650;2024-01-15T03:31:29;29.15;;;14.85;;
28766;SDS011;15921;52.034;20.650;2024-01-15T03:33:55;35.58;;;15.80;;
28766;SDS011;15921;52.034;20.650;2024-01-15T03:36:21;32.03;;;15.55;;
28766;SDS011;15921;52.034;20.650;2024-01-15T03:38:47;32.05;;;15.57;;
28766;SDS011;15921;52.034;20.650;2024-01-15T03:41:12;37.58;;;15.23;;
28766;SDS011;15921;52.034;20.650;2024-01-15T03:43:38;30.65;;;14.90;;
28766;SDS011;15921;52.034;20.650;2024-01-15T03:46:04;35.25;;;14.52;;
28766;SDS011;15921;52.034;20.650;2024-01-15T03:48:30;28.63;;;14.25;;
28766;SDS011;15921;52.034;20.650;2024-01-15T03:50:56;30.83;;;14.20;;
28766;SDS011;15921;52.034;20.650;2024-01-15T03:53:22;30.48;;;14.18;;
28766;SDS011;15921;52.034;20.650;2024-01-15T03:55:47;31.20;;;14.02;;
28766;SDS011;15921;52.034;20.650;2024-01-15T03:58:14;27.00;;;13.88;;
28766;SDS011;15921;52.034;20.650;2024-01-15T04:00:40;31.33;;;14.10;;
28766;SDS011;15921;52.034;20.650;2024-01-15T04:03:07;26.23;;;12.98;;
28766;SDS011;15921;52.034;20.650;2024-01-15T04:05:33;25.95;;;12.68;;
28766;SDS011;15921;52.034;20.650;2024-01-15T04:07:59;28.38;;;13.77;;
28766;SDS011;15921;52.034;20.650;2024-01-15T04:10:25;26.85;;;12.93;;
28766;SDS011;15921;52.034;20.650;2024-01-15T04:12:50;26.38;;;12.80;;
28766;SDS011;15921;52.034;20.650;2024-01-15T04:15:16;29.60;;;13.32;;
28766;SDS011;15921;52.034;20.650;2024-01-15T04:17:42;28.63;;;13.05;;
28766;SDS011;15921;52.034;20.650;2024-01-15T04:20:08;25.00;;;13.40;;
28766;SDS011;15921;52.034;20.650;2024-01-15T04:22:35;25.02;;;12.38;;
28766;SDS011;15921;52.034;20.650;2024-01-15T04:25:00;23.48;;;12.23;;
28766;SDS011;15921;52.034;20.650;2024-01-15T04:27:27;30.00;;;13.13;;
28766;SDS011;15921;52.034;20.650;2024-01-15T04:29:52;26.60;;;13.23;;
28766;SDS011;15921;52.034;20.650;2024-01-15T04:32:18;29.77;;;14.32;;
28766;SDS011;15921;52.034;20.650;2024-01-15T04:34:44;29.83;;;13.38;;
28766;SDS011;15921;52.034;20.650;2024-01-15T04:37:10;27.05;;;13.07;;
28766;SDS011;15921;52.034;20.650;2024-01-15T04:39:36;26.00;;;13.63;;
28766;SDS011;15921;52.034;20.650;2024-01-15T04:42:02;25.88;;;12.27;;
28766;SDS011;15921;52.034;20.650;2024-01-15T04:44:28;24.88;;;12.10;;
28766;SDS011;15921;52.034;20.650;2024-01-15T04:46:54;26.83;;;13.15;;
28766;SDS011;15921;52.034;20.650;2024-01-15T04:49:19;24.42;;;11.63;;
28766;SDS011;15921;52.034;20.650;2024-01-15T04:51:45;24.67;;;12.73;;
28766;SDS011;15921;52.034;20.650;2024-01-15T04:54:11;29.20;;;13.15;;
28766;SDS011;15921;52.034;20.650;2024-01-15T04:56:37;26.13;;;13.13;;
28766;SDS011;15921;52.034;20.650;2024-01-15T04:59:03;23.88;;;11.40;;
28766;SDS011;15921;52.034;20.650;2024-01-15T05:01:31;27.30;;;12.65;;
28766;SDS011;15921;52.034;20.650;2024-01-15T05:03:58;23.70;;;11.68;;
28766;SDS011;15921;52.034;20.650;2024-01-15T05:06:24;24.45;;;11.55;;
28766;SDS011;15921;52.034;20.650;2024-01-15T05:08:49;24.42;;;12.50;;
28766;SDS011;15921;52.034;20.650;2024-01-15T05:11:15;24.45;;;12.35;;
28766;SDS011;15921;52.034;20.650;2024-01-15T05:13:41;24.45;;;11.95;;
28766;SDS011;15921;52.034;20.650;2024-01-15T05:16:07;24.25;;;12.13;;
28766;SDS011;15921;52.034;20.650;2024-01-15T05:18:32;20.80;;;11.32;;
28766;SDS011;15921;52.034;20.650;2024-01-15T05:20:58;22.73;;;11.82;;
28766;SDS011;15921;52.034;20.650;2024-01-15T05:23:24;22.38;;;11.18;;
28766;SDS011;15921;52.034;20.650;2024-01-15T05:25:49;24.73;;;11.18;;
28766;SDS011;15921;52.034;20.650;2024-01-15T05:28:15;23.67;;;12.05;;
28766;SDS011;15921;52.034;20.650;2024-01-15T05:30:41;22.08;;;11.43;;
28766;SDS011;15921;52.034;20.650;2024-01-15T05:33:07;21.77;;;10.70;;
28766;SDS011;15921;52.034;20.650;2024-01-15T05:35:33;21.10;;;11.57;;
28766;SDS011;15921;52.034;20.650;2024-01-15T05:37:59;22.05;;;11.73;;
28766;SDS011;15921;52.034;20.650;2024-01-15T05:40:25;21.63;;;11.60;;
28766;SDS011;15921;52.034;20.650;2024-01-15T05:42:50;24.50;;;12.18;;
28766;SDS011;15921;52.034;20.650;2024-01-15T05:45:16;25.13;;;12.20;;
28766;SDS011;15921;52.034;20.650;2024-01-15T05:47:42;21.42;;;11.13;;
28766;SDS011;15921;52.034;20.650;2024-01-15T05:50:09;22.95;;;12.60;;
28766;SDS011;15921;52.034;20.650;2024-01-15T05:52:35;26.77;;;12.32;;
28766;SDS011;15921;52.034;20.650;2024-01-15T05:55:01;22.80;;;11.88;;
28766;SDS011;15921;52.034;20.650;2024-01-15T05:57:27;24.80;;;11.82;;
28766;SDS011;15921;52.034;20.650;2024-01-15T05:59:53;22.67;;;11.90;;
28766;SDS011;15921;52.034;20.650;2024-01-15T06:02:19;24.73;;;12.63;;
28766;SDS011;15921;52.034;20.650;2024-01-15T06:04:45;21.55;;;11.73;;
28766;SDS011;15921;52.034;20.650;2024-01-15T06:07:10;27.65;;;12.88;;
28766;SDS011;15921;52.034;20.650;2024-01-15T06:09:36;23.15;;;11.93;;
28766;SDS011;15921;52.034;20.650;2024-01-15T06:12:03;26.33;;;13.00;;
28766;SDS011;15921;52.034;20.650;2024-01-15T06:14:29;25.40;;;12.57;;
28766;SDS011;15921;52.034;20.650;2024-01-15T06:16:55;24.35;;;12.13;;
28766;SDS011;15921;52.034;20.650;2024-01-15T06:19:21;22.33;;;12.30;;
28766;SDS011;15921;52.034;20.650;2024-01-15T06:21:46;24.88;;;13.07;;
28766;SDS011;15921;52.034;20.650;2024-01-15T06:24:12;26.20;;;12.85;;
28766;SDS011;15921;52.034;20.650;2024-01-15T06:26:38;26.48;;;12.30;;
28766;SDS011;15921;52.034;20.650;2024-01-15T06:29:04;24.88;;;12.98;;
28766;SDS011;15921;52.034;20.650;2024-01-15T06:31:30;27.00;;;13.02;;
28766;SDS011;15921;52.034;20.650;2024-01-15T06:33:55;26.08;;;12.88;;
28766;SDS011;15921;52.034;20.650;2024-01-15T06:36:21;21.55;;;12.30;;
28766;SDS011;15921;52.034;20.650;2024-01-15T06:38:47;23.08;;;11.43;;
28766;SDS011;15921;52.034;20.650;2024-01-15T06:41:13;21.92;;;11.18;;
28766;SDS011;15921;52.034;20.650;2024-01-15T06:43:38;24.45;;;12.55;;
28766;SDS011;15921;52.034;20.650;2024-01-15T06:46:04;23.35;;;11.95;;
28766;SDS011;15921;52.034;20.650;2024-01-15T06:48:30;27.83;;;12.13;;
28766;SDS011;15921;52.034;20.650;2024-01-15T06:50:56;23.77;;;12.07;;
28766;SDS011;15921;52.034;20.650;2024-01-15T06:53:21;22.88;;;10.38;;
28766;SDS011;15921;52.034;20.650;2024-01-15T06:55:47;22.10;;;11.57;;
28766;SDS011;15921;52.034;20.650;2024-01-15T06:58:14;22.85;;;11.43;;
28766;SDS011;15921;52.034;20.650;2024-01-15T07:00:40;20.05;;;10.80;;
28766;SDS011;15921;52.034;20.650;2024-01-15T07:03:06;19.60;;;10.15;;
28766;SDS011;15921;52.034;20.650;2024-01-15T07:05:32;19.38;;;11.90;;
28766;SDS011;15921;52.034;20.650;2024-01-15T07:07:58;19.50;;;10.73;;
28766;SDS011;15921;52.034;20.650;2024-01-15T07:10:23;21.55;;;11.40;;
28766;SDS011;15921;52.034;20.650;2024-01-15T07:12:49;22.02;;;11.07;;
28766;SDS011;15921;52.034;20.650;2024-01-15T07:15:15;23.88;;;11.77;;
28766;SDS011;15921;52.034;20.650;2024-01-15T07:17:41;26.95;;;12.00;;
28766;SDS011;15921;52.034;20.650;2024-01-15T07:20:08;24.98;;;11.75;;
28766;SDS011;15921;52.034;20.650;2024-01-15T07:22:37;21.75;;;12.25;;
28766;SDS011;15921;52.034;20.650;2024-01-15T07:25:03;23.40;;;11.90;;
28766;SDS011;15921;52.034;20.650;2024-01-15T07:27:30;26.65;;;12.13;;
28766;SDS011;15921;52.034;20.650;2024-01-15T07:29:56;23.20;;;12.45;;
28766;SDS011;15921;52.034;20.650;2024-01-15T07:32:23;25.90;;;13.05;;
28766;SDS011;15921;52.034;20.650;2024-01-15T07:34:48;27.27;;;13.32;;
28766;SDS011;15921;52.034;20.650;2024-01-15T07:37:14;23.15;;;12.40;;
28766;SDS011;15921;52.034;20.650;2024-01-15T07:39:40;27.95;;;13.25;;
28766;SDS011;15921;52.034;20.650;2024-01-15T07:42:06;25.90;;;12.55;;
28766;SDS011;15921;52.034;20.650;2024-01-15T07:44:32;26.77;;;12.88;;
28766;SDS011;15921;52.034;20.650;2024-01-15T07:46:58;25.70;;;12.70;;
28766;SDS011;15921;52.034;20.650;2024-01-15T07:49:24;22.13;;;11.75;;
28766;SDS011;15921;52.034;20.650;2024-01-15T07:51:50;22.52;;;11.88;;
28766;SDS011;15921;52.034;20.650;2024-01-15T07:54:15;25.17;;;12.65;;
28766;SDS011;15921;52.034;20.650;2024-01-15T07:56:52;30.83;;;14.02;;
28766;SDS011;15921;52.034;20.650;2024-01-15T07:59:25;25.70;;;13.75;;
28766;SDS011;15921;52.034;20.650;2024-01-15T08:01:52;28.60;;;14.18;;
28766;SDS011;15921;52.034;20.650;2024-01-15T08:04:18;29.40;;;13.43;;
28766;SDS011;15921;52.034;20.650;2024-01-15T08:06:44;26.08;;;12.93;;
28766;SDS011;15921;52.034;20.650;2024-01-15T08:09:11;24.30;;;12.70;;
28766;SDS011;15921;52.034;20.650;2024-01-15T08:11:40;23.90;;;11.88;;
28766;SDS011;15921;52.034;20.650;2024-01-15T08:14:06;26.40;;;12.82;;
28766;SDS011;15921;52.034;20.650;2024-01-15T08:16:33;24.27;;;13.10;;
28766;SDS011;15921;52.034;20.650;2024-01-15T08:18:59;24.60;;;12.52;;
28766;SDS011;15921;52.034;20.650;2024-01-15T08:21:25;24.75;;;13.15;;
28766;SDS011;15921;52.034;20.650;2024-01-15T08:23:52;27.83;;;12.55;;
28766;SDS011;15921;52.034;20.650;2024-01-15T08:26:17;29.48;;;13.38;;
28766;SDS011;15921;52.034;20.650;2024-01-15T08:28:43;30.63;;;13.35;;
28766;SDS011;15921;52.034;20.650;2024-01-15T08:31:09;32.30;;;14.60;;
28766;SDS011;15921;52.034;20.650;2024-01-15T08:33:34;23.58;;;12.85;;
28766;SDS011;15921;52.034;20.650;2024-01-15T08:36:01;27.30;;;13.25;;
28766;SDS011;15921;52.034;20.650;2024-01-15T08:38:26;26.65;;;12.38;;
28766;SDS011;15921;52.034;20.650;2024-01-15T08:40:52;24.30;;;12.02;;
28766;SDS011;15921;52.034;20.650;2024-01-15T08:43:18;25.55;;;11.75;;
28766;SDS011;15921;52.034;20.650;2024-01-15T08:45:44;24.52;;;11.43;;
28766;SDS011;15921;52.034;20.650;2024-01-15T08:48:10;21.17;;;10.60;;
28766;SDS011;15921;52.034;20.650;2024-01-15T08:50:36;21.95;;;10.90;;
28766;SDS011;15921;52.034;20.650;2024-01-15T08:53:01;20.05;;;10.52;;
28766;SDS011;15921;52.034;20.650;2024-01-15T08:55:28;18.65;;;9.40;;
28766;SDS011;15921;52.034;20.650;2024-01-15T08:57:56;19.40;;;9.57;;
28766;SDS011;15921;52.034;20.650;2024-01-15T09:00:22;19.05;;;9.77;;
28766;SDS011;15921;52.034;20.650;2024-01-15T09:02:48;17.88;;;8.95;;
28766;SDS011;15921;52.034;20.650;2024-01-15T09:05:13;16.67;;;8.60;;
28766;SDS011;15921;52.034;20.650;2024-01-15T09:07:39;16.20;;;7.65;;
28766;SDS011;15921;52.034;20.650;2024-01-15T09:10:05;14.60;;;7.28;;
28766;SDS011;15921;52.034;20.650;2024-01-15T09:12:31;16.98;;;7.60;;
28766;SDS011;15921;52.034;20.650;2024-01-15T09:14:57;14.95;;;6.95;;
28766;SDS011;15921;52.034;20.650;2024-01-15T09:17:22;12.73;;;6.22;;
28766;SDS011;15921;52.034;20.650;2024-01-15T09:19:48;21.52;;;7.28;;
28766;SDS011;15921;52.034;20.650;2024-01-15T09:22:14;17.02;;;6.25;;
28766;SDS011;15921;52.034;20.650;2024-01-15T09:24:43;12.20;;;5.07;;
28766;SDS011;15921;52.034;20.650;2024-01-15T09:27:09;14.82;;;5.90;;
28766;SDS011;15921;52.034;20.650;2024-01-15T09:29:35;12.88;;;5.32;;
28766;SDS011;15921;52.034;20.650;2024-01-15T09:32:05;10.98;;;4.85;;
28766;SDS011;15921;52.034;20.650;2024-01-15T09:34:32;12.60;;;5.45;;
28766;SDS011;15921;52.034;20.650;2024-01-15T09:37:01;15.63;;;5.85;;
28766;SDS011;15921;52.034;20.650;2024-01-15T09:39:27;19.75;;;5.35;;
28766;SDS011;15921;52.034;20.650;2024-01-15T09:41:53;10.93;;;4.97;;
28766;SDS011;15921;52.034;20.650;2024-01-15T09:44:20;11.07;;;4.60;;
28766;SDS011;15921;52.034;20.650;2024-01-15T09:46:46;13.70;;;5.75;;
28766;SDS011;15921;52.034;20.650;2024-01-15T09:49:15;10.27;;;4.85;;
28766;SDS011;15921;52.034;20.650;2024-01-15T09:51:41;10.38;;;4.95;;
28766;SDS011;15921;52.034;20.650;2024-01-15T09:54:08;16.10;;;6.22;;
28766;SDS011;15921;52.034;20.650;2024-01-15T09:56:34;13.07;;;5.72;;
28766;SDS011;15921;52.034;20.650;2024-01-15T09:59:00;11.18;;;5.25;;
28766;SDS011;15921;52.034;20.650;2024-01-15T10:01:26;11.57;;;4.75;;
28766;SDS011;15921;52.034;20.650;2024-01-15T10:03:54;14.60;;;5.55;;
28766;SDS011;15921;52.034;20.650;2024-01-15T10:06:21;13.68;;;5.97;;
28766;SDS011;15921;52.034;20.650;2024-01-15T10:08:47;11.18;;;5.35;;
28766;SDS011;15921;52.034;20.650;2024-01-15T10:11:16;9.43;;;5.35;;
28766;SDS011;15921;52.034;20.650;2024-01-15T10:13:43;10.25;;;5.07;;
28766;SDS011;15921;52.034;20.650;2024-01-15T10:16:09;13.52;;;6.07;;
28766;SDS011;15921;52.034;20.650;2024-01-15T10:18:36;13.88;;;5.78;;
28766;SDS011;15921;52.034;20.650;2024-01-15T10:21:02;10.88;;;5.15;;
28766;SDS011;15921;52.034;20.650;2024-01-15T10:23:29;13.25;;;5.45;;
28766;SDS011;15921;52.034;20.650;2024-01-15T10:26:00;12.80;;;6.20;;
28766;SDS011;15921;52.034;20.650;2024-01-15T10:28:26;10.77;;;5.28;;
28766;SDS011;15921;52.034;20.650;2024-01-15T10:30:54;15.68;;;7.57;;
28766;SDS011;15921;52.034;20.650;2024-01-15T10:33:23;15.85;;;7.30;;
28766;SDS011;15921;52.034;20.650;2024-01-15T10:35:55;14.38;;;7.15;;
28766;SDS011;15921;52.034;20.650;2024-01-15T10:38:22;14.50;;;7.13;;
28766;SDS011;15921;52.034;20.650;2024-01-15T10:40:52;14.30;;;7.35;;
28766;SDS011;15921;52.034;20.650;2024-01-15T10:43:18;15.80;;;7.38;;
28766;SDS011;15921;52.034;20.650;2024-01-15T10:45:45;17.38;;;7.50;;
28766;SDS011;15921;52.034;20.650;2024-01-15T10:48:11;16.35;;;8.05;;
28766;SDS011;15921;52.034;20.650;2024-01-15T10:50:37;16.58;;;7.40;;
28766;SDS011;15921;52.034;20.650;2024-01-15T10:53:04;15.05;;;8.38;;
28766;SDS011;15921;52.034;20.650;2024-01-15T10:55:30;16.23;;;7.20;;
28766;SDS011;15921;52.034;20.650;2024-01-15T10:57:58;17.42;;;8.45;;
28766;SDS011;15921;52.034;20.650;2024-01-15T11:00:25;18.65;;;8.07;;
28766;SDS011;15921;52.034;20.650;2024-01-15T11:02:51;14.20;;;7.45;;
28766;SDS011;15921;52.034;20.650;2024-01-15T11:05:20;15.30;;;7.57;;
28766;SDS011;15921;52.034;20.650;2024-01-15T11:07:49;17.05;;;8.27;;
28766;SDS011;15921;52.034;20.650;2024-01-15T11:13:02;16.23;;;7.63;;
28766;SDS011;15921;52.034;20.650;2024-01-15T11:15:28;25.02;;;7.63;;
28766;SDS011;15921;52.034;20.650;2024-01-15T11:17:58;14.50;;;7.28;;
28766;SDS011;15921;52.034;20.650;2024-01-15T11:20:25;17.67;;;7.10;;
28766;SDS011;15921;52.034;20.650;2024-01-15T11:22:51;16.65;;;8.07;;
28766;SDS011;15921;52.034;20.650;2024-01-15T11:25:20;18.52;;;7.95;;
28766;SDS011;15921;52.034;20.650;2024-01-15T11:27:47;19.33;;;8.73;;
28766;SDS011;15921;52.034;20.650;2024-01-15T11:30:20;20.55;;;8.63;;
28766;SDS011;15921;52.034;20.650;2024-01-15T11:32:50;24.80;;;8.80;;
28766;SDS011;15921;52.034;20.650;2024-01-15T11:35:16;18.85;;;8.70;;
28766;SDS011;15921;52.034;20.650;2024-01-15T11:40:13;19.58;;;8.52;;
28766;SDS011;15921;52.034;20.650;2024-01-15T11:42:44;23.33;;;9.18;;
28766;SDS011;15921;52.034;20.650;2024-01-15T11:45:10;19.65;;;8.75;;
28766;SDS011;15921;52.034;20.650;2024-01-15T11:50:17;19.10;;;8.98;;
28766;SDS011;15921;52.034;20.650;2024-01-15T11:52:44;22.35;;;9.80;;
28766;SDS011;15921;52.034;20.650;2024-01-15T11:55:27;21.15;;;10.52;;
28766;SDS011;15921;52.034;20.650;2024-01-15T11:57:55;23.95;;;9.48;;
28766;SDS011;15921;52.034;20.650;2024-01-15T12:00:25;22.55;;;10.02;;
28766;SDS011;15921;52.034;20.650;2024-01-15T12:02:51;24.52;;;9.65;;
28766;SDS011;15921;52.034;20.650;2024-01-15T12:05:17;21.15;;;10.05;;
28766;SDS011;15921;52.034;20.650;2024-01-15T12:07:45;21.33;;;9.80;;
28766;SDS011;15921;52.034;20.650;2024-01-15T12:15:30;21.95;;;10.27;;
28766;SDS011;15921;52.034;20.650;2024-01-15T12:17:57;20.85;;;9.82;;
28766;SDS011;15921;52.034;20.650;2024-01-15T12:20:27;23.98;;;10.32;;
28766;SDS011;15921;52.034;20.650;2024-01-15T12:22:54;22.08;;;9.85;;
28766;SDS011;15921;52.034;20.650;2024-01-15T12:25:20;21.75;;;10.13;;
28766;SDS011;15921;52.034;20.650;2024-01-15T12:27:50;21.90;;;10.13;;
28766;SDS011;15921;52.034;20.650;2024-01-15T12:30:17;22.88;;;9.48;;
28766;SDS011;15921;52.034;20.650;2024-01-15T12:32:43;20.98;;;9.18;;
28766;SDS011;15921;52.034;20.650;2024-01-15T12:35:10;20.73;;;8.52;;
28766;SDS011;15921;52.034;20.650;2024-01-15T12:37:36;24.00;;;9.38;;
28766;SDS011;15921;52.034;20.650;2024-01-15T12:40:04;19.25;;;9.35;;
28766;SDS011;15921;52.034;20.650;2024-01-15T12:42:34;23.75;;;9.52;;
28766;SDS011;15921;52.034;20.650;2024-01-15T12:45:06;23.05;;;9.45;;
28766;SDS011;15921;52.034;20.650;2024-01-15T12:47:33;23.05;;;9.60;;
28766;SDS011;15921;52.034;20.650;2024-01-15T12:49:59;21.45;;;9.90;;
28766;SDS011;15921;52.034;20.650;2024-01-15T12:52:27;23.77;;;10.48;;
28766;SDS011;15921;52.034;20.650;2024-01-15T12:54:54;28.73;;;11.13;;
28766;SDS011;15921;52.034;20.650;2024-01-15T12:57:20;23.05;;;10.05;;
28766;SDS011;15921;52.034;20.650;2024-01-15T12:59:46;25.27;;;10.80;;
28766;SDS011;15921;52.034;20.650;2024-01-15T13:02:15;26.23;;;10.38;;
28766;SDS011;15921;52.034;20.650;2024-01-15T13:04:41;27.42;;;10.80;;
28766;SDS011;15921;52.034;20.650;2024-01-15T13:07:07;24.52;;;10.52;;
28766;SDS011;15921;52.034;20.650;2024-01-15T13:09:33;25.70;;;10.65;;
28766;SDS011;15921;52.034;20.650;2024-01-15T13:12:00;21.08;;;9.48;;
28766;SDS011;15921;52.034;20.650;2024-01-15T13:14:26;22.83;;;9.68;;
28766;SDS011;15921;52.034;20.650;2024-01-15T13:16:53;21.85;;;9.20;;
28766;SDS011;15921;52.034;20.650;2024-01-15T13:19:19;22.67;;;9.00;;
28766;SDS011;15921;52.034;20.650;2024-01-15T13:21:46;18.00;;;8.55;;
28766;SDS011;15921;52.034;20.650;2024-01-15T13:24:12;28.55;;;9.98;;
28766;SDS011;15921;52.034;20.650;2024-01-15T13:26:39;21.33;;;8.90;;
28766;SDS011;15921;52.034;20.650;2024-01-15T13:29:05;20.15;;;9.18;;
28766;SDS011;15921;52.034;20.650;2024-01-15T13:31:31;21.10;;;9.00;;
28766;SDS011;15921;52.034;20.650;2024-01-15T13:33:58;27.02;;;9.30;;
28766;SDS011;15921;52.034;20.650;2024-01-15T13:36:27;24.48;;;9.90;;
28766;SDS011;15921;52.034;20.650;2024-01-15T13:38:53;23.75;;;9.25;;
28766;SDS011;15921;52.034;20.650;2024-01-15T13:41:19;28.20;;;11.25;;
28766;SDS011;15921;52.034;20.650;2024-01-15T13:43:52;27.88;;;10.55;;
28766;SDS011;15921;52.034;20.650;2024-01-15T13:46:19;26.55;;;10.73;;
28766;SDS011;15921;52.034;20.650;2024-01-15T13:48:47;26.30;;;11.35;;
28766;SDS011;15921;52.034;20.650;2024-01-15T13:51:12;26.88;;;10.27;;
28766;SDS011;15921;52.034;20.650;2024-01-15T13:53:38;22.33;;;10.48;;
28766;SDS011;15921;52.034;20.650;2024-01-15T13:56:05;29.20;;;9.77;;
28766;SDS011;15921;52.034;20.650;2024-01-15T13:58:31;26.33;;;10.82;;
28766;SDS011;15921;52.034;20.650;2024-01-15T14:01:00;25.70;;;10.88;;
28766;SDS011;15921;52.034;20.650;2024-01-15T14:03:26;30.65;;;11.23;;
28766;SDS011;15921;52.034;20.650;2024-01-15T14:05:52;24.45;;;11.25;;
28766;SDS011;15921;52.034;20.650;2024-01-15T14:08:18;30.38;;;10.98;;
28766;SDS011;15921;52.034;20.650;2024-01-15T14:10:43;26.67;;;10.60;;
28766;SDS011;15921;52.034;20.650;2024-01-15T14:13:10;23.95;;;10.65;;
28766;SDS011;15921;52.034;20.650;2024-01-15T14:15:36;22.50;;;10.07;;
28766;SDS011;15921;52.034;20.650;2024-01-15T14:18:02;29.45;;;10.98;;
28766;SDS011;15921;52.034;20.650;2024-01-15T14:20:27;26.80;;;10.90;;
28766;SDS011;15921;52.034;20.650;2024-01-15T14:22:53;25.38;;;10.23;;